This is the latest recevied weather packets stored in our database for station/object MM0ZFG-5. If no packets are shown the sender has not sent any weather packets the latest 10 day(s).
| Time | Temp. | Humidity | Pressure | Rain* | Wind** | Luminosity | Snow |
|---|---|---|---|---|---|---|---|
| 1777514405 | 7.22° C | 70% | 1024.6 hPa | 0 mm | - | - | - |
| 1777511343 | 7.78° C | 69% | 1024.9 hPa | 0 mm | - | - | - |
| 1777509385 | 8.33° C | 68% | 1025.1 hPa | 0 mm | - | - | - |
| 1777502706 | 9.44° C | 67% | 1025.1 hPa | 0 mm | - | - | - |
| 1777501624 | 10° C | 66% | 1025.1 hPa | 0 mm | - | - | - |
| 1777498024 | 11.11° C | 63% | 1024.9 hPa | 0 mm | - | - | - |
| 1777490846 | 13.89° C | 57% | 1024 hPa | 0 mm | - | - | - |
| 1777490285 | 14.44° C | 57% | 1023.9 hPa | 0 mm | - | - | - |
| 1777489765 | 14.44° C | 56% | 1023.9 hPa | 0 mm | - | - | - |
| 1777483084 | 19.44° C | 43% | 1024.1 hPa | 0 mm | - | - | - |
| 1777481644 | 19.44° C | 40% | 1024.3 hPa | 0 mm | - | - | - |
| 1777480045 | 20.56° C | 41% | 1024.2 hPa | 0 mm | - | - | - |
| 1777478044 | 20.56° C | 40% | 1024.6 hPa | 0 mm | - | - | - |
| 1777475884 | 20.56° C | 43% | 1024.9 hPa | 0 mm | - | - | - |
| 1777474446 | 20° C | 45% | 1025.2 hPa | 0 mm | - | - | - |
| 1777471743 | 19.44° C | 47% | 1025.8 hPa | 0 mm | - | - | - |
| 1777471205 | 18.89° C | 48% | 1025.8 hPa | 0 mm | - | - | - |
| 1777469763 | 18.33° C | 50% | 1025.9 hPa | 0 mm | - | - | - |
| 1777465084 | 14.44° C | 65% | 1026.8 hPa | 0 mm | - | - | - |
| 1777464004 | 13.89° C | 65% | 1026.9 hPa | 0 mm | - | - | - |
| 1777463645 | 13.89° C | 67% | 1026.9 hPa | 0 mm | - | - | - |
| 1777462023 | 12.78° C | 69% | 1027.2 hPa | 0 mm | - | - | - |
| 1777456443 | 10° C | 80% | 1027.9 hPa | 0 mm | - | - | - |
| 1777453744 | 8.33° C | 81% | 1028.2 hPa | 0 mm | - | - | - |
| 1777452325 | 8.33° C | 81% | 1028.3 hPa | 0 mm | - | - | - |
* Rain latest hour (hover to see other rain measurements)
** Current wind speed in m/s (hover to see current wind gust speed)